Gogama, Canada
Current Conditions -  °F | °C
As of 5:00 AM on Saturday 25 Oct 2014 (Local Time) from CYTS Reporting Station
Overcast Overcast  
Wind Chill:   Ceiling: 9500
Heat Index:   Visibility: 15mi
Dew Point:   Wind: 10mph
Humidity: 87%   Direction: 190°S
Pressure: 29.51"   Gusts: NA
Location:  47.67°N, 81.72°W
Report Text: CYTS 250900Z 19009KT 15SM OVC095 08/06 A2951 RMK AC8 SLP000
Loading
Personal Weather Stations






























Interactive Weather Map
Tropical Storm Tracking
New forecast layout! Learn more

10-Day Weather Forecast

Advertisements
Track Severe Weather on mobile